sensor_id;sensor_type;location;lat;lon;timestamp;pressure;altitude;pressure_sealevel;temperature;humidity
34177;BME280;20450;49.074;9.158;2023-04-05T00:02:03;100440.38;;;2.56;67.12
34177;BME280;20450;49.074;9.158;2023-04-05T00:04:31;100432.69;;;2.43;67.69
34177;BME280;20450;49.074;9.158;2023-04-05T00:06:58;100443.66;;;2.21;68.72
34177;BME280;20450;49.074;9.158;2023-04-05T00:09:26;100432.16;;;2.21;68.65
34177;BME280;20450;49.074;9.158;2023-04-05T00:11:53;100433.28;;;2.28;68.52
34177;BME280;20450;49.074;9.158;2023-04-05T00:14:20;100420.78;;;2.28;68.83
34177;BME280;20450;49.074;9.158;2023-04-05T00:16:47;100422.03;;;2.34;68.37
34177;BME280;20450;49.074;9.158;2023-04-05T00:19:15;100417.19;;;2.00;69.63
34177;BME280;20450;49.074;9.158;2023-04-05T00:21:42;100426.03;;;1.91;72.08
34177;BME280;20450;49.074;9.158;2023-04-05T00:24:09;100417.03;;;1.92;71.81
34177;BME280;20450;49.074;9.158;2023-04-05T00:26:36;100416.91;;;1.75;71.41
34177;BME280;20450;49.074;9.158;2023-04-05T00:29:03;100406.81;;;1.59;72.40
34177;BME280;20450;49.074;9.158;2023-04-05T00:31:30;100405.84;;;1.70;71.59
34177;BME280;20450;49.074;9.158;2023-04-05T00:33:57;100404.88;;;1.71;71.55
34177;BME280;20450;49.074;9.158;2023-04-05T00:36:25;100407.81;;;1.87;70.77
34177;BME280;20450;49.074;9.158;2023-04-05T00:38:53;100403.59;;;1.94;70.39
34177;BME280;20450;49.074;9.158;2023-04-05T00:41:22;100397.25;;;1.95;69.72
34177;BME280;20450;49.074;9.158;2023-04-05T00:43:49;100396.84;;;1.99;69.12
34177;BME280;20450;49.074;9.158;2023-04-05T00:46:16;100386.75;;;2.03;68.75
34177;BME280;20450;49.074;9.158;2023-04-05T00:48:43;100393.78;;;1.94;69.07
34177;BME280;20450;49.074;9.158;2023-04-05T00:51:10;100386.63;;;1.76;69.91
34177;BME280;20450;49.074;9.158;2023-04-05T00:53:39;100394.22;;;1.90;69.77
34177;BME280;20450;49.074;9.158;2023-04-05T00:56:07;100389.69;;;2.00;70.35
34177;BME280;20450;49.074;9.158;2023-04-05T00:58:34;100381.56;;;2.01;72.51
34177;BME280;20450;49.074;9.158;2023-04-05T01:01:05;100383.94;;;2.04;73.60
34177;BME280;20450;49.074;9.158;2023-04-05T01:03:36;100376.53;;;2.08;72.47
34177;BME280;20450;49.074;9.158;2023-04-05T01:06:16;100379.75;;;2.02;70.50
34177;BME280;20450;49.074;9.158;2023-04-05T01:09:04;100369.34;;;2.08;69.84
34177;BME280;20450;49.074;9.158;2023-04-05T01:11:41;100374.13;;;2.05;69.27
34177;BME280;20450;49.074;9.158;2023-04-05T01:14:10;100364.22;;;1.78;70.05
34177;BME280;20450;49.074;9.158;2023-04-05T01:16:37;100373.31;;;1.76;70.51
34177;BME280;20450;49.074;9.158;2023-04-05T01:19:04;100379.22;;;1.79;70.21
34177;BME280;20450;49.074;9.158;2023-04-05T01:21:56;100379.22;;;1.79;70.32
34177;BME280;20450;49.074;9.158;2023-04-05T01:24:48;100382.56;;;1.62;71.06
34177;BME280;20450;49.074;9.158;2023-04-05T01:27:53;100374.31;;;1.56;71.26
34177;BME280;20450;49.074;9.158;2023-04-05T01:30:38;100375.56;;;1.52;71.94
34177;BME280;20450;49.074;9.158;2023-04-05T01:33:14;100369.56;;;1.31;73.06
34177;BME280;20450;49.074;9.158;2023-04-05T01:35:53;100366.75;;;1.32;73.22
34177;BME280;20450;49.074;9.158;2023-04-05T01:38:26;100369.13;;;1.45;72.41
34177;BME280;20450;49.074;9.158;2023-04-05T01:40:54;100367.00;;;1.39;72.43
34177;BME280;20450;49.074;9.158;2023-04-05T01:43:21;100361.44;;;1.51;72.14
34177;BME280;20450;49.074;9.158;2023-04-05T01:45:50;100358.59;;;1.62;72.00
34177;BME280;20450;49.074;9.158;2023-04-05T01:48:17;100364.38;;;1.67;71.56
34177;BME280;20450;49.074;9.158;2023-04-05T01:50:44;100363.78;;;1.73;71.27
34177;BME280;20450;49.074;9.158;2023-04-05T01:53:11;100353.56;;;1.78;70.96
34177;BME280;20450;49.074;9.158;2023-04-05T01:55:39;100352.72;;;1.78;70.95
34177;BME280;20450;49.074;9.158;2023-04-05T01:58:07;100348.94;;;1.71;71.19
34177;BME280;20450;49.074;9.158;2023-04-05T02:00:34;100349.78;;;1.71;71.27
34177;BME280;20450;49.074;9.158;2023-04-05T02:03:02;100349.50;;;1.46;72.11
34177;BME280;20450;49.074;9.158;2023-04-05T02:05:30;100355.13;;;1.52;71.96
34177;BME280;20450;49.074;9.158;2023-04-05T02:07:58;100355.94;;;1.62;72.07
34177;BME280;20450;49.074;9.158;2023-04-05T02:10:25;100358.47;;;1.64;71.92
34177;BME280;20450;49.074;9.158;2023-04-05T02:12:53;100357.22;;;1.68;72.06
34177;BME280;20450;49.074;9.158;2023-04-05T02:15:20;100354.28;;;1.71;71.76
34177;BME280;20450;49.074;9.158;2023-04-05T02:17:47;100355.25;;;1.70;71.64
34177;BME280;20450;49.074;9.158;2023-04-05T02:20:15;100351.63;;;1.71;71.86
34177;BME280;20450;49.074;9.158;2023-04-05T02:22:42;100336.88;;;1.67;72.01
34177;BME280;20450;49.074;9.158;2023-04-05T02:25:09;100340.53;;;1.66;71.93
34177;BME280;20450;49.074;9.158;2023-04-05T02:27:37;100328.78;;;1.59;71.94
34177;BME280;20450;49.074;9.158;2023-04-05T02:30:05;100330.59;;;1.49;71.74
34177;BME280;20450;49.074;9.158;2023-04-05T02:32:33;100344.19;;;1.36;72.45
34177;BME280;20450;49.074;9.158;2023-04-05T02:35:01;100339.00;;;1.35;73.08
34177;BME280;20450;49.074;9.158;2023-04-05T02:37:30;100335.91;;;1.30;73.10
34177;BME280;20450;49.074;9.158;2023-04-05T02:39:57;100339.97;;;1.24;73.88
34177;BME280;20450;49.074;9.158;2023-04-05T02:46:32;100329.31;;;1.05;74.43
34177;BME280;20450;49.074;9.158;2023-04-05T02:48:59;100346.97;;;1.16;74.20
34177;BME280;20450;49.074;9.158;2023-04-05T02:51:28;100337.72;;;1.20;73.95
34177;BME280;20450;49.074;9.158;2023-04-05T02:53:57;100333.50;;;1.08;74.06
34177;BME280;20450;49.074;9.158;2023-04-05T02:56:24;100331.56;;;1.10;74.42
34177;BME280;20450;49.074;9.158;2023-04-05T02:58:52;100335.75;;;1.12;73.91
34177;BME280;20450;49.074;9.158;2023-04-05T03:01:22;100334.63;;;1.15;74.04
34177;BME280;20450;49.074;9.158;2023-04-05T03:03:49;100329.88;;;1.09;73.97
34177;BME280;20450;49.074;9.158;2023-04-05T03:06:34;100334.38;;;1.08;74.06
34177;BME280;20450;49.074;9.158;2023-04-05T03:09:07;100332.66;;;1.07;73.98
34177;BME280;20450;49.074;9.158;2023-04-05T03:11:35;100333.38;;;1.09;74.16
34177;BME280;20450;49.074;9.158;2023-04-05T03:14:03;100330.69;;;0.90;74.99
34177;BME280;20450;49.074;9.158;2023-04-05T03:16:40;100331.06;;;0.67;76.24
34177;BME280;20450;49.074;9.158;2023-04-05T03:19:18;100331.47;;;0.72;76.32
34177;BME280;20450;49.074;9.158;2023-04-05T03:21:45;100325.75;;;0.67;76.33
34177;BME280;20450;49.074;9.158;2023-04-05T03:24:24;100320.84;;;0.62;76.16
34177;BME280;20450;49.074;9.158;2023-04-05T03:26:54;100324.72;;;0.58;76.20
34177;BME280;20450;49.074;9.158;2023-04-05T03:29:23;100330.63;;;0.62;76.49
34177;BME280;20450;49.074;9.158;2023-04-05T03:31:52;100319.53;;;0.57;76.79
34177;BME280;20450;49.074;9.158;2023-04-05T03:34:22;100335.38;;;0.68;76.18
34177;BME280;20450;49.074;9.158;2023-04-05T03:36:49;100328.13;;;0.70;75.49
34177;BME280;20450;49.074;9.158;2023-04-05T03:39:33;100327.78;;;0.54;76.40
34177;BME280;20450;49.074;9.158;2023-04-05T03:42:01;100330.63;;;0.62;75.93
34177;BME280;20450;49.074;9.158;2023-04-05T03:44:28;100321.25;;;0.67;75.75
34177;BME280;20450;49.074;9.158;2023-04-05T03:46:55;100329.53;;;0.74;75.90
34177;BME280;20450;49.074;9.158;2023-04-05T03:49:22;100332.22;;;0.44;76.02
34177;BME280;20450;49.074;9.158;2023-04-05T03:51:49;100322.72;;;0.41;76.78
34177;BME280;20450;49.074;9.158;2023-04-05T03:54:17;100328.03;;;0.51;76.40
34177;BME280;20450;49.074;9.158;2023-04-05T03:56:46;100329.91;;;0.60;76.45
34177;BME280;20450;49.074;9.158;2023-04-05T03:59:16;100326.25;;;0.51;76.38
34177;BME280;20450;49.074;9.158;2023-04-05T04:01:43;100322.59;;;0.52;76.40
34177;BME280;20450;49.074;9.158;2023-04-05T04:04:10;100331.88;;;0.58;76.83
34177;BME280;20450;49.074;9.158;2023-04-05T04:06:40;100321.66;;;0.63;76.64
34177;BME280;20450;49.074;9.158;2023-04-05T04:09:07;100324.22;;;0.74;76.20
34177;BME280;20450;49.074;9.158;2023-04-05T04:11:34;100318.91;;;0.74;76.04
34177;BME280;20450;49.074;9.158;2023-04-05T04:14:05;100325.19;;;0.33;77.38
34177;BME280;20450;49.074;9.158;2023-04-05T04:16:44;100314.75;;;0.11;79.25
34177;BME280;20450;49.074;9.158;2023-04-05T04:19:37;100318.66;;;0.07;78.89
34177;BME280;20450;49.074;9.158;2023-04-05T04:22:21;100311.69;;;0.16;78.28
34177;BME280;20450;49.074;9.158;2023-04-05T04:25:10;100319.06;;;0.33;77.70
34177;BME280;20450;49.074;9.158;2023-04-05T04:27:56;100310.19;;;0.23;77.90
34177;BME280;20450;49.074;9.158;2023-04-05T04:31:01;100318.16;;;0.23;77.88
34177;BME280;20450;49.074;9.158;2023-04-05T04:33:51;100310.63;;;-0.03;78.90
34177;BME280;20450;49.074;9.158;2023-04-05T04:36:36;100309.94;;;-0.05;79.42
34177;BME280;20450;49.074;9.158;2023-04-05T04:39:33;100309.44;;;0.11;78.94
34177;BME280;20450;49.074;9.158;2023-04-05T04:42:32;100307.09;;;0.18;79.55
34177;BME280;20450;49.074;9.158;2023-04-05T04:45:13;100307.28;;;-0.05;79.02
34177;BME280;20450;49.074;9.158;2023-04-05T04:48:03;100312.75;;;0.03;79.50
34177;BME280;20450;49.074;9.158;2023-04-05T04:50:49;100320.66;;;0.15;79.96
34177;BME280;20450;49.074;9.158;2023-04-05T04:53:17;100326.56;;;0.28;79.15
34177;BME280;20450;49.074;9.158;2023-04-05T04:55:44;100331.09;;;0.37;78.82
34177;BME280;20450;49.074;9.158;2023-04-05T04:58:12;100333.63;;;0.48;78.59
34177;BME280;20450;49.074;9.158;2023-04-05T05:00:42;100331.16;;;0.56;77.67
34177;BME280;20450;49.074;9.158;2023-04-05T05:03:11;100336.38;;;0.67;77.76
34177;BME280;20450;49.074;9.158;2023-04-05T05:05:42;100338.50;;;0.73;76.92
34177;BME280;20450;49.074;9.158;2023-04-05T05:08:10;100333.47;;;0.79;76.45
34177;BME280;20450;49.074;9.158;2023-04-05T05:10:40;100332.09;;;0.94;76.10
34177;BME280;20450;49.074;9.158;2023-04-05T05:13:07;100338.84;;;1.27;75.49
34177;BME280;20450;49.074;9.158;2023-04-05T05:15:34;100336.34;;;1.63;74.20
34177;BME280;20450;49.074;9.158;2023-04-05T05:18:02;100326.47;;;2.02;72.83
34177;BME280;20450;49.074;9.158;2023-04-05T05:20:31;100333.63;;;2.38;71.41
34177;BME280;20450;49.074;9.158;2023-04-05T05:22:58;100330.69;;;2.68;70.30
34177;BME280;20450;49.074;9.158;2023-04-05T05:25:25;100337.75;;;3.14;68.59
34177;BME280;20450;49.074;9.158;2023-04-05T05:27:54;100329.44;;;3.52;65.87
34177;BME280;20450;49.074;9.158;2023-04-05T05:30:23;100327.00;;;4.01;62.80
34177;BME280;20450;49.074;9.158;2023-04-05T05:32:51;100335.44;;;4.48;61.44
34177;BME280;20450;49.074;9.158;2023-04-05T05:35:18;100323.38;;;4.78;60.10
34177;BME280;20450;49.074;9.158;2023-04-05T05:37:46;100323.81;;;5.15;58.21
34177;BME280;20450;49.074;9.158;2023-04-05T05:40:13;100313.66;;;5.26;57.42
34177;BME280;20450;49.074;9.158;2023-04-05T05:42:40;100316.28;;;5.02;57.92
34177;BME280;20450;49.074;9.158;2023-04-05T05:45:09;100311.38;;;4.90;58.67
34177;BME280;20450;49.074;9.158;2023-04-05T05:47:36;100324.16;;;4.62;58.98
34177;BME280;20450;49.074;9.158;2023-04-05T05:50:03;100324.81;;;4.56;58.45
34177;BME280;20450;49.074;9.158;2023-04-05T05:52:33;100332.88;;;5.06;57.60
34177;BME280;20450;49.074;9.158;2023-04-05T05:55:01;100323.44;;;5.91;54.92
34177;BME280;20450;49.074;9.158;2023-04-05T05:57:28;100326.47;;;6.59;52.98
34177;BME280;20450;49.074;9.158;2023-04-05T05:59:55;100326.91;;;7.40;50.45
34177;BME280;20450;49.074;9.158;2023-04-05T06:02:22;100323.38;;;8.07;49.13
34177;BME280;20450;49.074;9.158;2023-04-05T06:04:50;100321.13;;;8.62;47.95
34177;BME280;20450;49.074;9.158;2023-04-05T06:07:17;100320.50;;;9.25;45.92
34177;BME280;20450;49.074;9.158;2023-04-05T06:09:44;100324.44;;;9.64;44.26
34177;BME280;20450;49.074;9.158;2023-04-05T06:12:12;100326.94;;;9.66;43.04
34177;BME280;20450;49.074;9.158;2023-04-05T06:14:40;100323.94;;;9.54;43.54
34177;BME280;20450;49.074;9.158;2023-04-05T06:17:06;100319.13;;;9.71;43.43
34177;BME280;20450;49.074;9.158;2023-04-05T06:19:33;100322.63;;;9.92;42.85
34177;BME280;20450;49.074;9.158;2023-04-05T06:22:00;100325.91;;;10.30;41.73
34177;BME280;20450;49.074;9.158;2023-04-05T06:24:27;100329.94;;;10.13;42.34
34177;BME280;20450;49.074;9.158;2023-04-05T06:26:55;100330.06;;;9.27;43.79
34177;BME280;20450;49.074;9.158;2023-04-05T06:29:23;100333.09;;;8.89;45.76
34177;BME280;20450;49.074;9.158;2023-04-05T06:31:50;100329.06;;;9.49;44.39
34177;BME280;20450;49.074;9.158;2023-04-05T06:34:17;100322.16;;;10.31;41.69
34177;BME280;20450;49.074;9.158;2023-04-05T06:36:45;100327.78;;;10.98;40.18
34177;BME280;20450;49.074;9.158;2023-04-05T06:39:12;100323.75;;;11.34;39.82
34177;BME280;20450;49.074;9.158;2023-04-05T06:41:39;100320.88;;;11.42;38.21
34177;BME280;20450;49.074;9.158;2023-04-05T06:44:06;100321.09;;;11.54;38.24
34177;BME280;20450;49.074;9.158;2023-04-05T06:46:35;100313.72;;;12.41;36.51
34177;BME280;20450;49.074;9.158;2023-04-05T06:49:02;100322.84;;;12.66;36.26
34177;BME280;20450;49.074;9.158;2023-04-05T06:51:30;100322.28;;;13.21;34.83
34177;BME280;20450;49.074;9.158;2023-04-05T06:53:57;100324.03;;;12.83;35.00
34177;BME280;20450;49.074;9.158;2023-04-05T06:56:24;100320.53;;;13.33;34.55
34177;BME280;20450;49.074;9.158;2023-04-05T06:58:51;100314.31;;;13.26;34.52
34177;BME280;20450;49.074;9.158;2023-04-05T07:01:18;100322.44;;;13.26;34.24
34177;BME280;20450;49.074;9.158;2023-04-05T07:03:46;100328.63;;;12.82;35.55
34177;BME280;20450;49.074;9.158;2023-04-05T07:06:13;100322.22;;;11.92;36.90
34177;BME280;20450;49.074;9.158;2023-04-05T07:08:40;100323.47;;;11.70;37.22
34177;BME280;20450;49.074;9.158;2023-04-05T07:11:07;100310.50;;;12.76;35.12
34177;BME280;20450;49.074;9.158;2023-04-05T07:13:34;100314.41;;;13.00;35.32
34177;BME280;20450;49.074;9.158;2023-04-05T07:16:02;100311.66;;;13.88;34.92
34177;BME280;20450;49.074;9.158;2023-04-05T07:18:29;100304.81;;;14.77;32.71
34177;BME280;20450;49.074;9.158;2023-04-05T07:20:58;100309.31;;;15.01;31.24
34177;BME280;20450;49.074;9.158;2023-04-05T07:23:26;100307.78;;;15.41;31.67
34177;BME280;20450;49.074;9.158;2023-04-05T07:25:54;100309.00;;;14.73;32.23
34177;BME280;20450;49.074;9.158;2023-04-05T07:28:25;100301.16;;;15.37;30.12
34177;BME280;20450;49.074;9.158;2023-04-05T07:30:51;100309.03;;;14.91;30.90
34177;BME280;20450;49.074;9.158;2023-04-05T07:33:20;100308.16;;;15.74;29.74
34177;BME280;20450;49.074;9.158;2023-04-05T07:35:51;100314.53;;;15.68;29.37
34177;BME280;20450;49.074;9.158;2023-04-05T07:38:19;100304.41;;;15.87;28.38
34177;BME280;20450;49.074;9.158;2023-04-05T07:40:47;100309.94;;;16.22;28.60
34177;BME280;20450;49.074;9.158;2023-04-05T07:43:14;100314.63;;;16.67;28.07
34177;BME280;20450;49.074;9.158;2023-04-05T07:45:41;100310.84;;;16.04;28.83
34177;BME280;20450;49.074;9.158;2023-04-05T07:48:08;100313.84;;;16.95;28.20
34177;BME280;20450;49.074;9.158;2023-04-05T07:50:39;100310.97;;;17.24;27.04
34177;BME280;20450;49.074;9.158;2023-04-05T07:53:07;100315.41;;;16.91;27.14
34177;BME280;20450;49.074;9.158;2023-04-05T07:55:37;100314.47;;;16.97;27.05
34177;BME280;20450;49.074;9.158;2023-04-05T07:58:04;100316.09;;;16.98;27.41
34177;BME280;20450;49.074;9.158;2023-04-05T08:00:31;100312.78;;;16.38;27.60
34177;BME280;20450;49.074;9.158;2023-04-05T08:02:58;100315.38;;;17.14;26.45
34177;BME280;20450;49.074;9.158;2023-04-05T08:08:48;100312.13;;;16.54;26.96
34177;BME280;20450;49.074;9.158;2023-04-05T08:11:17;100313.09;;;15.18;29.68
34177;BME280;20450;49.074;9.158;2023-04-05T08:13:45;100307.34;;;16.96;27.59
34177;BME280;20450;49.074;9.158;2023-04-05T08:16:12;100308.53;;;17.39;26.27
34177;BME280;20450;49.074;9.158;2023-04-05T08:18:39;100301.03;;;18.19;25.52
34177;BME280;20450;49.074;9.158;2023-04-05T08:21:06;100298.88;;;18.05;26.01
34177;BME280;20450;49.074;9.158;2023-04-05T08:23:32;100304.75;;;18.13;26.03
34177;BME280;20450;49.074;9.158;2023-04-05T08:26:00;100300.22;;;17.74;25.56
34177;BME280;20450;49.074;9.158;2023-04-05T08:28:28;100301.25;;;18.01;25.02
34177;BME280;20450;49.074;9.158;2023-04-05T08:30:55;100301.94;;;16.50;26.60
34177;BME280;20450;49.074;9.158;2023-04-05T08:33:22;100298.19;;;15.39;28.79
34177;BME280;20450;49.074;9.158;2023-04-05T08:35:49;100307.19;;;15.21;28.64
34177;BME280;20450;49.074;9.158;2023-04-05T08:38:17;100306.88;;;15.77;27.66
34177;BME280;20450;49.074;9.158;2023-04-05T08:40:45;100297.03;;;16.17;26.94
34177;BME280;20450;49.074;9.158;2023-04-05T08:43:17;100302.66;;;15.33;27.57
34177;BME280;20450;49.074;9.158;2023-04-05T08:45:52;100300.91;;;14.49;28.72
34177;BME280;20450;49.074;9.158;2023-04-05T08:48:23;100304.69;;;13.99;29.58
34177;BME280;20450;49.074;9.158;2023-04-05T08:54:10;100303.56;;;14.73;28.91
34177;BME280;20450;49.074;9.158;2023-04-05T08:56:37;100307.78;;;14.02;28.83
34177;BME280;20450;49.074;9.158;2023-04-05T08:59:08;100304.91;;;15.54;26.65
34177;BME280;20450;49.074;9.158;2023-04-05T09:01:41;100304.16;;;15.77;26.68
34177;BME280;20450;49.074;9.158;2023-04-05T09:04:13;100311.63;;;13.57;29.65
34177;BME280;20450;49.074;9.158;2023-04-05T09:09:51;100302.06;;;12.08;33.50
34177;BME280;20450;49.074;9.158;2023-04-05T09:12:21;100302.22;;;12.32;33.04
34177;BME280;20450;49.074;9.158;2023-04-05T09:14:51;100304.94;;;11.67;34.13
34177;BME280;20450;49.074;9.158;2023-04-05T09:17:20;100304.84;;;11.47;35.47
34177;BME280;20450;49.074;9.158;2023-04-05T09:19:49;100306.28;;;11.37;35.24
34177;BME280;20450;49.074;9.158;2023-04-05T09:22:16;100307.06;;;11.98;34.31
34177;BME280;20450;49.074;9.158;2023-04-05T09:24:45;100297.88;;;12.18;33.35
34177;BME280;20450;49.074;9.158;2023-04-05T09:27:18;100303.69;;;12.41;32.56
34177;BME280;20450;49.074;9.158;2023-04-05T09:29:52;100306.97;;;11.58;34.31
34177;BME280;20450;49.074;9.158;2023-04-05T09:32:24;100295.41;;;12.04;32.71
34177;BME280;20450;49.074;9.158;2023-04-05T09:34:53;100302.53;;;12.81;31.49
34177;BME280;20450;49.074;9.158;2023-04-05T09:37:27;100298.56;;;13.03;31.44
34177;BME280;20450;49.074;9.158;2023-04-05T09:40:01;100298.69;;;13.59;31.03
34177;BME280;20450;49.074;9.158;2023-04-05T09:42:42;100298.44;;;13.29;30.07
34177;BME280;20450;49.074;9.158;2023-04-05T09:45:10;100288.75;;;14.02;29.65
34177;BME280;20450;49.074;9.158;2023-04-05T09:47:59;100280.84;;;13.69;30.04
34177;BME280;20450;49.074;9.158;2023-04-05T09:50:27;100282.69;;;13.75;27.10
34177;BME280;20450;49.074;9.158;2023-04-05T09:53:08;100276.00;;;14.52;26.91
34177;BME280;20450;49.074;9.158;2023-04-05T09:55:36;100268.28;;;15.03;26.23
34177;BME280;20450;49.074;9.158;2023-04-05T09:58:03;100268.16;;;14.98;26.96
34177;BME280;20450;49.074;9.158;2023-04-05T10:00:31;100265.88;;;15.72;27.04
34177;BME280;20450;49.074;9.158;2023-04-05T10:02:59;100258.25;;;16.27;24.32
34177;BME280;20450;49.074;9.158;2023-04-05T10:05:27;100259.69;;;16.64;22.99
34177;BME280;20450;49.074;9.158;2023-04-05T10:07:55;100266.34;;;17.19;22.66
34177;BME280;20450;49.074;9.158;2023-04-05T10:10:24;100267.69;;;17.44;22.72
34177;BME280;20450;49.074;9.158;2023-04-05T10:12:52;100262.59;;;15.82;22.82
34177;BME280;20450;49.074;9.158;2023-04-05T10:15:19;100260.00;;;14.19;25.58
34177;BME280;20450;49.074;9.158;2023-04-05T10:17:51;100261.28;;;13.61;26.58
34177;BME280;20450;49.074;9.158;2023-04-05T10:20:23;100264.97;;;12.21;29.41
34177;BME280;20450;49.074;9.158;2023-04-05T10:23:00;100259.56;;;11.69;30.00
34177;BME280;20450;49.074;9.158;2023-04-05T10:25:48;100264.53;;;13.07;28.49
34177;BME280;20450;49.074;9.158;2023-04-05T10:28:29;100255.75;;;13.49;28.42
34177;BME280;20450;49.074;9.158;2023-04-05T10:31:03;100251.47;;;15.24;26.30
34177;BME280;20450;49.074;9.158;2023-04-05T10:33:45;100245.56;;;15.45;25.42
34177;BME280;20450;49.074;9.158;2023-04-05T10:36:21;100255.19;;;16.35;25.28
34177;BME280;20450;49.074;9.158;2023-04-05T10:39:02;100240.78;;;14.57;24.92
34177;BME280;20450;49.074;9.158;2023-04-05T10:42:04;100245.44;;;14.56;27.87
34177;BME280;20450;49.074;9.158;2023-04-05T10:44:38;100227.97;;;15.29;25.92
34177;BME280;20450;49.074;9.158;2023-04-05T10:47:12;100248.50;;;12.23;29.83
34177;BME280;20450;49.074;9.158;2023-04-05T10:49:45;100240.81;;;13.27;29.16
34177;BME280;20450;49.074;9.158;2023-04-05T10:52:19;100230.41;;;13.87;27.41
34177;BME280;20450;49.074;9.158;2023-04-05T10:58:33;100228.59;;;17.16;24.59
34177;BME280;20450;49.074;9.158;2023-04-05T11:01:02;100227.75;;;17.55;23.34
34177;BME280;20450;49.074;9.158;2023-04-05T11:03:46;100232.00;;;17.96;23.29
34177;BME280;20450;49.074;9.158;2023-04-05T11:06:24;100223.63;;;17.86;22.13
34177;BME280;20450;49.074;9.158;2023-04-05T11:09:00;100226.09;;;18.20;22.21
34177;BME280;20450;49.074;9.158;2023-04-05T11:11:39;100215.47;;;18.57;21.83
34177;BME280;20450;49.074;9.158;2023-04-05T11:14:21;100216.50;;;18.72;21.50
34177;BME280;20450;49.074;9.158;2023-04-05T11:16:52;100214.75;;;18.28;21.59
34177;BME280;20450;49.074;9.158;2023-04-05T11:19:49;100206.13;;;18.74;22.01
34177;BME280;20450;49.074;9.158;2023-04-05T11:22:24;100208.78;;;19.34;21.59
34177;BME280;20450;49.074;9.158;2023-04-05T11:24:54;100206.13;;;19.71;21.58
34177;BME280;20450;49.074;9.158;2023-04-05T11:27:28;100212.66;;;19.16;21.81
34177;BME280;20450;49.074;9.158;2023-04-05T11:29:57;100213.50;;;18.52;21.52
34177;BME280;20450;49.074;9.158;2023-04-05T11:32:37;100205.84;;;18.54;22.31
34177;BME280;20450;49.074;9.158;2023-04-05T11:35:07;100198.03;;;19.06;22.59
34177;BME280;20450;49.074;9.158;2023-04-05T11:38:06;100189.63;;;19.66;21.64
34177;BME280;20450;49.074;9.158;2023-04-05T11:40:38;100192.59;;;19.11;21.16
34177;BME280;20450;49.074;9.158;2023-04-05T11:43:06;100192.06;;;17.95;22.49
34177;BME280;20450;49.074;9.158;2023-04-05T11:45:38;100187.94;;;17.92;21.79
34177;BME280;20450;49.074;9.158;2023-04-05T11:48:09;100187.06;;;18.25;22.56
34177;BME280;20450;49.074;9.158;2023-04-05T11:50:38;100182.63;;;17.24;22.78
34177;BME280;20450;49.074;9.158;2023-04-05T11:53:11;100180.72;;;17.25;23.32
34177;BME280;20450;49.074;9.158;2023-04-05T11:55:41;100182.28;;;17.49;23.15
34177;BME280;20450;49.074;9.158;2023-04-05T11:58:11;100177.56;;;16.14;24.30
34177;BME280;20450;49.074;9.158;2023-04-05T12:00:43;100176.03;;;17.37;23.40
34177;BME280;20450;49.074;9.158;2023-04-05T12:03:44;100176.13;;;16.12;25.66
34177;BME280;20450;49.074;9.158;2023-04-05T12:06:29;100172.66;;;16.90;25.31
34177;BME280;20450;49.074;9.158;2023-04-05T12:08:56;100165.75;;;17.27;24.35
34177;BME280;20450;49.074;9.158;2023-04-05T12:11:26;100177.50;;;16.72;24.68
34177;BME280;20450;49.074;9.158;2023-04-05T12:13:55;100166.88;;;16.01;26.82
34177;BME280;20450;49.074;9.158;2023-04-05T12:16:24;100160.59;;;15.77;27.56
34177;BME280;20450;49.074;9.158;2023-04-05T12:18:54;100163.69;;;15.69;26.66
34177;BME280;20450;49.074;9.158;2023-04-05T12:21:23;100152.13;;;15.44;28.15
34177;BME280;20450;49.074;9.158;2023-04-05T12:23:52;100149.94;;;14.64;28.88
34177;BME280;20450;49.074;9.158;2023-04-05T12:26:20;100147.44;;;14.09;27.80
34177;BME280;20450;49.074;9.158;2023-04-05T12:28:53;100157.00;;;12.25;31.39
34177;BME280;20450;49.074;9.158;2023-04-05T12:31:34;100149.78;;;12.06;32.63
34177;BME280;20450;49.074;9.158;2023-04-05T12:34:02;100151.09;;;12.47;32.33
34177;BME280;20450;49.074;9.158;2023-04-05T12:36:30;100148.31;;;12.60;32.79
34177;BME280;20450;49.074;9.158;2023-04-05T12:38:57;100153.66;;;12.80;32.66
34177;BME280;20450;49.074;9.158;2023-04-05T12:41:28;100139.34;;;13.10;32.94
34177;BME280;20450;49.074;9.158;2023-04-05T12:43:57;100138.53;;;13.34;32.04
34177;BME280;20450;49.074;9.158;2023-04-05T12:46:37;100153.22;;;12.83;31.57
34177;BME280;20450;49.074;9.158;2023-04-05T12:49:05;100142.06;;;12.09;31.91
34177;BME280;20450;49.074;9.158;2023-04-05T12:51:36;100146.22;;;12.18;32.01
34177;BME280;20450;49.074;9.158;2023-04-05T12:54:06;100147.91;;;12.00;31.35
34177;BME280;20450;49.074;9.158;2023-04-05T12:56:33;100135.25;;;11.41;33.92
34177;BME280;20450;49.074;9.158;2023-04-05T12:59:03;100143.72;;;10.86;33.83
34177;BME280;20450;49.074;9.158;2023-04-05T13:01:32;100128.81;;;11.23;34.76
34177;BME280;20450;49.074;9.158;2023-04-05T13:04:00;100137.38;;;11.72;34.34
34177;BME280;20450;49.074;9.158;2023-04-05T13:06:43;100122.94;;;11.98;32.77
34177;BME280;20450;49.074;9.158;2023-04-05T13:09:10;100126.25;;;12.13;32.56
34177;BME280;20450;49.074;9.158;2023-04-05T13:11:37;100124.09;;;12.28;32.80
34177;BME280;20450;49.074;9.158;2023-04-05T13:14:06;100122.78;;;12.37;31.94
34177;BME280;20450;49.074;9.158;2023-04-05T13:16:33;100128.63;;;12.47;31.48
34177;BME280;20450;49.074;9.158;2023-04-05T13:19:00;100119.84;;;12.45;32.00
34177;BME280;20450;49.074;9.158;2023-04-05T13:21:27;100114.66;;;12.43;31.96
34177;BME280;20450;49.074;9.158;2023-04-05T13:23:54;100116.78;;;12.35;32.04
34177;BME280;20450;49.074;9.158;2023-04-05T13:26:21;100115.94;;;12.41;32.98
34177;BME280;20450;49.074;9.158;2023-04-05T13:28:48;100115.28;;;12.45;31.98
34177;BME280;20450;49.074;9.158;2023-04-05T13:31:27;100108.78;;;12.53;31.54
34177;BME280;20450;49.074;9.158;2023-04-05T13:34:03;100104.44;;;12.45;31.44